createdAt,value
2022-10-01T00:00:20.734Z,85.87
2022-10-01T00:02:56.725Z,85.98
2022-10-01T00:05:25.589Z,85.71
2022-10-01T00:07:52.348Z,85.51
2022-10-01T00:10:19.427Z,86.16
2022-10-01T00:12:51.264Z,85.37
2022-10-01T00:15:21.986Z,85.71
2022-10-01T00:17:48.885Z,85.70
2022-10-01T00:20:15.707Z,86.10
2022-10-01T00:22:42.386Z,86.06
2022-10-01T00:25:11.108Z,85.56
2022-10-01T00:27:42.987Z,85.62
2022-10-01T00:30:13.346Z,86.40
2022-10-01T00:32:41.255Z,85.96
2022-10-01T00:35:12.721Z,86.14
2022-10-01T00:37:39.368Z,85.31
2022-10-01T00:40:06.799Z,85.57
2022-10-01T00:42:33.764Z,85.82
2022-10-01T00:45:03.348Z,85.81
2022-10-01T00:47:44.331Z,86.11
2022-10-01T00:50:26.406Z,85.54
2022-10-01T00:53:07.802Z,86.32
2022-10-01T00:55:37.688Z,86.07
2022-10-01T00:58:05.208Z,86.27
2022-10-01T01:00:40.640Z,85.51
2022-10-01T01:03:10.275Z,85.98
2022-10-01T01:05:36.919Z,86.71
2022-10-01T01:08:04.406Z,86.39
2022-10-01T01:10:40.312Z,86.92
2022-10-01T01:13:31.930Z,86.56
2022-10-01T01:16:22.059Z,86.63
2022-10-01T01:19:07.365Z,86.84
2022-10-01T01:21:53.830Z,86.05
2022-10-01T01:25:11.699Z,87.07
2022-10-01T01:27:42.665Z,86.17
2022-10-01T01:30:16.024Z,85.89
2022-10-01T01:32:53.100Z,86.03
2022-10-01T01:35:32.419Z,85.99
2022-10-01T01:38:05.742Z,85.07
2022-10-01T01:40:36.877Z,85.48
2022-10-01T01:43:09.028Z,85.41
2022-10-01T01:45:40.301Z,85.08
2022-10-01T01:48:10.089Z,85.50
2022-10-01T01:50:51.930Z,85.68
2022-10-01T01:53:20.302Z,86.26
2022-10-01T01:55:49.402Z,85.79
2022-10-01T01:58:20.159Z,85.20
2022-10-01T02:00:52.574Z,85.88
2022-10-01T02:03:22.049Z,86.04
2022-10-01T02:06:10.195Z,86.03
2022-10-01T02:08:46.538Z,85.17
2022-10-01T02:11:39.047Z,85.37
2022-10-01T02:14:24.011Z,85.57
2022-10-01T02:17:01.568Z,85.91
2022-10-01T02:19:34.543Z,86.19
2022-10-01T02:22:22.614Z,86.38
2022-10-01T02:24:59.266Z,86.22
2022-10-01T02:27:44.700Z,85.75
2022-10-01T02:30:15.416Z,85.34
2022-10-01T02:32:45.589Z,85.79
2022-10-01T02:35:16.802Z,85.63
2022-10-01T02:37:45.988Z,85.99
2022-10-01T02:40:16.572Z,85.63
2022-10-01T02:42:51.981Z,85.57
2022-10-01T02:45:24.979Z,85.42
2022-10-01T02:48:08.072Z,85.64
2022-10-01T02:50:42.738Z,85.29
2022-10-01T02:53:17.104Z,84.86
2022-10-01T02:55:46.044Z,85.41
2022-10-01T02:58:12.979Z,85.13
2022-10-01T03:00:39.561Z,85.01
2022-10-01T03:03:08.817Z,85.58
2022-10-01T03:05:35.487Z,85.28
2022-10-01T03:08:02.757Z,85.72
2022-10-01T03:10:29.539Z,85.20
2022-10-01T03:12:56.550Z,85.19
2022-10-01T03:15:24.278Z,85.41
2022-10-01T03:17:51.949Z,85.49
2022-10-01T03:20:18.833Z,85.49
2022-10-01T03:22:46.980Z,85.47
2022-10-01T03:25:15.675Z,86.01
2022-10-01T03:27:42.904Z,85.94
2022-10-01T03:30:10.465Z,85.59
2022-10-01T03:32:37.174Z,85.05
2022-10-01T03:35:04.114Z,85.97
2022-10-01T03:37:30.697Z,85.68
2022-10-01T03:39:57.455Z,85.74
2022-10-01T03:42:23.950Z,85.88
2022-10-01T03:44:50.739Z,85.87
2022-10-01T03:47:17.465Z,85.71
2022-10-01T03:49:44.182Z,85.84
2022-10-01T03:52:10.794Z,85.68
2022-10-01T03:54:38.937Z,86.23
2022-10-01T03:57:06.115Z,85.85
2022-10-01T03:59:32.974Z,86.10
2022-10-01T04:01:59.893Z,85.98
2022-10-01T04:04:29.887Z,85.69
2022-10-01T04:06:56.496Z,86.46
2022-10-01T04:09:24.220Z,85.67
2022-10-01T04:11:50.909Z,86.27
2022-10-01T04:14:18.547Z,86.26
2022-10-01T04:16:45.272Z,86.30
2022-10-01T04:19:11.866Z,86.05
2022-10-01T04:21:39.759Z,85.72
2022-10-01T04:24:06.662Z,85.93
2022-10-01T04:26:33.277Z,85.64
2022-10-01T04:29:00.021Z,85.72
2022-10-01T04:31:26.943Z,86.26
2022-10-01T04:33:56.110Z,85.31
2022-10-01T04:36:24.503Z,85.78
2022-10-01T04:39:00.826Z,85.68
2022-10-01T04:41:30.833Z,86.01
2022-10-01T04:43:59.450Z,86.49
2022-10-01T04:46:26.405Z,86.16
2022-10-01T04:48:56.358Z,85.85
2022-10-01T04:51:23.102Z,86.34
2022-10-01T04:53:49.792Z,85.79
2022-10-01T04:56:17.502Z,86.77
2022-10-01T04:58:44.231Z,85.93
2022-10-01T05:01:10.916Z,86.33
2022-10-01T05:03:37.530Z,85.98
2022-10-01T05:06:04.190Z,86.40
2022-10-01T05:08:31.465Z,86.22
2022-10-01T05:11:00.528Z,86.70
2022-10-01T05:13:30.349Z,86.46
2022-10-01T05:15:57.781Z,86.45
2022-10-01T05:18:26.900Z,86.56
2022-10-01T05:20:59.296Z,85.93
2022-10-01T05:23:26.032Z,86.45
2022-10-01T05:25:55.535Z,86.15
2022-10-01T05:28:35.024Z,86.68
2022-10-01T05:31:04.294Z,86.36
2022-10-01T05:33:31.904Z,86.78
2022-10-01T05:35:59.020Z,86.05
2022-10-01T05:38:26.218Z,86.29
2022-10-01T05:40:52.789Z,86.73
2022-10-01T05:43:19.557Z,85.90
2022-10-01T05:45:46.317Z,85.82
2022-10-01T05:48:13.306Z,85.95
2022-10-01T05:50:44.269Z,86.13
2022-10-01T05:53:12.154Z,86.38
2022-10-01T05:55:39.837Z,85.91
2022-10-01T05:58:12.709Z,86.25
2022-10-01T06:00:47.094Z,86.21
2022-10-01T06:03:15.370Z,86.64
2022-10-01T06:05:46.715Z,85.93
2022-10-01T06:08:15.912Z,86.27
2022-10-01T06:13:35.869Z,86.30
2022-10-01T06:16:12.658Z,86.64
2022-10-01T06:18:49.154Z,86.61
2022-10-01T06:21:16.090Z,86.67
2022-10-01T06:23:45.045Z,86.76
2022-10-01T06:26:22.395Z,86.60
2022-10-01T06:28:55.929Z,86.96
2022-10-01T06:31:25.552Z,86.40
2022-10-01T06:34:00.940Z,86.79
2022-10-01T06:36:30.546Z,86.78
2022-10-01T06:39:00.706Z,87.07
2022-10-01T06:41:30.434Z,87.13
2022-10-01T06:44:12.316Z,87.00
2022-10-01T06:46:41.669Z,87.23
2022-10-01T06:52:39.860Z,86.76
2022-10-01T06:55:13.112Z,87.42
2022-10-01T06:57:42.636Z,87.09
2022-10-01T07:00:14.325Z,87.49
2022-10-01T07:02:43.672Z,87.33
2022-10-01T07:05:12.278Z,87.28
2022-10-01T07:07:41.956Z,87.29
2022-10-01T07:10:10.280Z,87.44
2022-10-01T07:13:00.059Z,88.13
2022-10-01T07:16:06.739Z,87.43
2022-10-01T07:18:55.754Z,87.92
2022-10-01T07:21:37.771Z,87.70
2022-10-01T07:24:35.069Z,87.96
2022-10-01T07:31:16.981Z,88.05
2022-10-01T07:33:40.806Z,87.46
2022-10-01T07:43:54.777Z,87.12
2022-10-01T07:47:24.150Z,87.71
2022-10-01T07:49:35.140Z,86.75
2022-10-01T07:52:12.403Z,87.01
2022-10-01T07:54:56.125Z,87.55
2022-10-01T07:57:28.873Z,86.54
2022-10-01T08:00:24.186Z,86.96
2022-10-01T08:02:56.887Z,86.17
2022-10-01T08:06:17.903Z,85.24
2022-10-01T08:08:50.769Z,85.46
2022-10-01T08:11:26.105Z,85.13
2022-10-01T08:14:00.180Z,83.64
2022-10-01T08:16:33.640Z,83.31
2022-10-01T08:19:28.749Z,82.84
2022-10-01T08:22:14.562Z,81.78
2022-10-01T08:24:41.284Z,81.51
2022-10-01T08:27:07.970Z,81.67
2022-10-01T08:29:47.970Z,81.73
2022-10-01T08:32:14.775Z,81.22
2022-10-01T08:34:43.552Z,81.07
2022-10-01T08:37:18.485Z,80.26
2022-10-01T08:39:52.511Z,80.11
2022-10-01T08:43:14.053Z,80.01
2022-10-01T08:45:59.045Z,79.83
2022-10-01T08:48:40.880Z,79.81
2022-10-01T08:51:24.223Z,78.08
2022-10-01T08:53:59.531Z,79.09
2022-10-01T08:56:39.730Z,78.88
2022-10-01T08:59:27.517Z,78.33
2022-10-01T09:02:08.168Z,79.03
2022-10-01T09:04:44.372Z,78.18
2022-10-01T09:07:58.977Z,79.21
2022-10-01T09:10:57.467Z,79.04
2022-10-01T09:13:52.972Z,77.33
2022-10-01T09:16:29.596Z,77.31
2022-10-01T09:19:20.053Z,77.74
2022-10-01T09:21:52.785Z,77.09
2022-10-01T09:24:47.986Z,77.39
2022-10-01T09:27:23.434Z,75.89
2022-10-01T09:29:56.442Z,75.71
2022-10-01T09:32:27.762Z,74.91
2022-10-01T09:34:54.826Z,74.80
2022-10-01T09:38:08.093Z,73.51
2022-10-01T09:40:50.174Z,72.63
2022-10-01T09:43:20.086Z,72.73
2022-10-01T09:45:50.036Z,72.49
2022-10-01T09:49:02.335Z,70.33
2022-10-01T09:51:45.770Z,72.50
2022-10-01T09:54:37.709Z,70.08
2022-10-01T09:57:19.166Z,69.31
2022-10-01T09:59:57.271Z,66.12
2022-10-01T10:02:32.235Z,67.65
2022-10-01T10:05:10.556Z,69.16
2022-10-01T10:08:03.291Z,67.50
2022-10-01T10:11:12.688Z,68.07
2022-10-01T10:13:45.446Z,67.36
2022-10-01T10:16:36.711Z,68.21
2022-10-01T10:19:10.408Z,65.00
2022-10-01T10:21:42.360Z,65.25
2022-10-01T10:24:24.292Z,64.54
2022-10-01T10:27:06.427Z,65.10
2022-10-01T10:29:40.486Z,65.84
2022-10-01T10:32:18.028Z,66.25
2022-10-01T10:35:05.591Z,63.99
2022-10-01T10:37:38.677Z,64.71
2022-10-01T10:40:11.157Z,63.05
2022-10-01T10:43:07.119Z,61.73
2022-10-01T10:45:40.445Z,61.73
2022-10-01T10:48:16.912Z,61.91
2022-10-01T10:50:46.916Z,61.61
2022-10-01T10:53:49.089Z,61.76
2022-10-01T10:56:23.909Z,61.58
2022-10-01T10:58:54.572Z,60.39
2022-10-01T11:01:29.787Z,60.34
2022-10-01T11:04:00.050Z,59.31
2022-10-01T11:06:28.635Z,59.30
2022-10-01T11:09:08.230Z,59.50
2022-10-01T11:11:44.222Z,58.52
2022-10-01T11:14:38.965Z,59.04
2022-10-01T11:17:21.095Z,59.41
2022-10-01T11:19:56.747Z,59.60
2022-10-01T11:22:44.330Z,58.45
2022-10-01T11:25:22.528Z,59.84
2022-10-01T11:28:09.788Z,60.02
2022-10-01T11:30:54.316Z,61.33
2022-10-01T11:33:33.030Z,60.96
2022-10-01T11:36:11.740Z,61.00
2022-10-01T11:39:03.079Z,61.18
2022-10-01T11:41:50.267Z,60.61
2022-10-01T11:44:24.679Z,58.42
2022-10-01T11:47:03.089Z,60.36
2022-10-01T11:49:42.573Z,59.77
2022-10-01T11:52:21.186Z,59.40
2022-10-01T11:55:22.870Z,59.00
2022-10-01T11:58:14.743Z,58.26
2022-10-01T12:00:52.326Z,58.73
2022-10-01T12:03:25.309Z,58.38
2022-10-01T12:05:53.536Z,59.50
2022-10-01T12:08:29.645Z,59.11
2022-10-01T12:11:09.818Z,58.09
2022-10-01T12:13:41.235Z,58.55
2022-10-01T12:16:31.574Z,58.30
2022-10-01T12:19:14.776Z,57.77
2022-10-01T12:21:46.856Z,55.87
2022-10-01T12:24:18.671Z,57.19
2022-10-01T12:26:57.910Z,55.65
2022-10-01T12:29:33.319Z,56.76
2022-10-01T12:31:59.751Z,55.43
2022-10-01T12:34:54.340Z,55.56
2022-10-01T12:37:40.050Z,55.80
2022-10-01T12:40:21.915Z,56.18
2022-10-01T12:43:04.267Z,54.27
2022-10-01T12:46:02.892Z,53.02
2022-10-01T12:48:49.291Z,53.65
2022-10-01T12:51:21.769Z,54.12
2022-10-01T12:54:21.030Z,53.59
2022-10-01T12:57:17.346Z,50.74
2022-10-01T13:00:10.668Z,51.81
2022-10-01T13:02:53.111Z,52.15
2022-10-01T13:05:50.710Z,53.73
2022-10-01T13:08:17.291Z,53.00
2022-10-01T13:10:50.083Z,53.37
2022-10-01T13:13:22.950Z,51.99
2022-10-01T13:15:58.741Z,52.72
2022-10-01T13:18:31.430Z,53.06
2022-10-01T13:21:30.423Z,51.90
2022-10-01T13:24:00.865Z,53.02
2022-10-01T13:26:43.247Z,53.04
2022-10-01T13:29:35.042Z,52.37
2022-10-01T13:32:04.451Z,54.25
2022-10-01T13:34:39.981Z,53.19
2022-10-01T13:37:11.843Z,52.10
2022-10-01T13:39:42.055Z,53.58
2022-10-01T13:42:23.113Z,53.54
2022-10-01T13:45:24.535Z,52.24
2022-10-01T13:47:51.308Z,52.92
2022-10-01T13:50:24.338Z,52.35
2022-10-01T13:52:52.449Z,52.70
2022-10-01T13:55:30.574Z,53.14
2022-10-01T13:58:20.494Z,53.57
2022-10-01T14:00:56.319Z,52.98
2022-10-01T14:03:50.669Z,53.10
2022-10-01T14:06:24.447Z,53.21
2022-10-01T14:09:13.154Z,53.42
2022-10-01T14:12:03.190Z,52.54
2022-10-01T14:14:54.024Z,51.88
2022-10-01T14:17:31.589Z,53.03
2022-10-01T14:20:00.548Z,52.84
2022-10-01T14:23:01.745Z,53.44
2022-10-01T14:26:01.958Z,53.13
2022-10-01T14:28:34.570Z,53.14
2022-10-01T14:31:07.157Z,52.55
2022-10-01T14:34:06.440Z,53.17
2022-10-01T14:36:42.679Z,52.68
2022-10-01T14:39:27.848Z,51.43
2022-10-01T14:41:56.798Z,51.56
2022-10-01T14:44:29.558Z,51.09
2022-10-01T14:46:57.979Z,51.00
2022-10-01T14:49:32.356Z,50.49
2022-10-01T14:52:03.840Z,49.93
2022-10-01T14:54:37.336Z,50.17
2022-10-01T14:57:15.101Z,49.68
2022-10-01T14:59:42.080Z,49.70
2022-10-01T15:02:20.817Z,49.72
2022-10-01T15:04:50.764Z,49.28
2022-10-01T15:07:17.840Z,49.07
2022-10-01T15:09:45.486Z,48.68
2022-10-01T15:12:13.644Z,47.90
2022-10-01T15:14:42.520Z,46.42
2022-10-01T15:17:18.210Z,45.81
2022-10-01T15:19:47.404Z,45.66
2022-10-01T15:22:16.307Z,45.74
2022-10-01T15:24:49.035Z,46.71
2022-10-01T15:27:19.106Z,46.10
2022-10-01T15:29:46.614Z,46.27
2022-10-01T15:32:16.598Z,46.48
2022-10-01T15:34:48.528Z,46.89
2022-10-01T15:37:32.549Z,46.55
2022-10-01T15:40:00.839Z,47.41
2022-10-01T15:42:31.532Z,47.36
2022-10-01T15:45:07.106Z,46.91
2022-10-01T15:47:38.577Z,48.04
2022-10-01T15:50:15.232Z,49.20
2022-10-01T15:52:51.123Z,49.06
2022-10-01T15:55:21.677Z,50.00
2022-10-01T15:58:06.737Z,49.74
2022-10-01T16:00:52.746Z,49.34
2022-10-01T16:03:27.347Z,49.89
2022-10-01T16:05:55.294Z,50.20
2022-10-01T16:08:25.660Z,49.81
2022-10-01T16:11:18.692Z,48.96
2022-10-01T16:13:48.895Z,50.04
2022-10-01T16:16:25.043Z,50.29
2022-10-01T16:19:20.216Z,50.41
2022-10-01T16:22:19.203Z,50.23
2022-10-01T16:25:26.166Z,50.16
2022-10-01T16:28:03.956Z,50.07
2022-10-01T16:30:32.710Z,49.97
2022-10-01T16:33:02.441Z,50.44
2022-10-01T16:35:32.635Z,49.71
2022-10-01T16:37:59.474Z,50.21
2022-10-01T16:40:28.295Z,50.15
2022-10-01T16:42:55.526Z,50.46
2022-10-01T16:45:27.716Z,50.90
2022-10-01T16:47:56.757Z,51.83
2022-10-01T16:50:24.190Z,51.20
2022-10-01T16:52:56.970Z,51.81
2022-10-01T16:55:31.384Z,51.87
2022-10-01T16:57:58.005Z,52.23
2022-10-01T17:00:26.678Z,52.65
2022-10-01T17:02:54.699Z,53.42
2022-10-01T17:05:32.960Z,52.82
2022-10-01T17:08:01.179Z,54.08
2022-10-01T17:10:33.731Z,53.60
2022-10-01T17:13:00.314Z,53.76
2022-10-01T17:15:28.092Z,54.30
2022-10-01T17:17:55.775Z,54.23
2022-10-01T17:20:23.548Z,54.57
2022-10-01T17:22:50.609Z,55.24
2022-10-01T17:25:20.077Z,55.43
2022-10-01T17:27:46.941Z,54.93
2022-10-01T17:30:14.331Z,54.64
2022-10-01T17:32:43.039Z,54.41
2022-10-01T17:35:14.701Z,53.75
2022-10-01T17:37:41.986Z,54.09
2022-10-01T17:40:09.821Z,54.85
2022-10-01T17:42:36.709Z,54.17
2022-10-01T17:45:06.534Z,54.05
2022-10-01T17:47:33.823Z,54.99
2022-10-01T17:50:00.464Z,55.12
2022-10-01T17:52:26.976Z,55.11
2022-10-01T17:54:53.535Z,55.29
2022-10-01T17:57:20.165Z,55.25
2022-10-01T17:59:46.708Z,55.83
2022-10-01T18:02:36.505Z,56.04
2022-10-01T18:05:01.192Z,56.03
2022-10-01T18:07:27.765Z,56.25
2022-10-01T18:09:54.465Z,56.70
2022-10-01T18:12:21.015Z,56.90
2022-10-01T18:14:48.700Z,56.98
2022-10-01T18:17:15.545Z,57.04
2022-10-01T18:19:57.590Z,58.27
2022-10-01T18:22:24.660Z,57.88
2022-10-01T18:24:51.190Z,58.50
2022-10-01T18:27:18.805Z,58.92
2022-10-01T18:29:45.396Z,58.74
2022-10-01T18:32:21.700Z,59.03
2022-10-01T18:34:58.886Z,59.20
2022-10-01T18:37:37.571Z,59.81
2022-10-01T18:40:12.429Z,59.75
2022-10-01T18:42:51.328Z,60.46
2022-10-01T18:45:40.775Z,60.60
2022-10-01T18:48:13.397Z,60.44
2022-10-01T18:50:58.202Z,60.38
2022-10-01T18:53:34.624Z,60.73
2022-10-01T18:56:20.929Z,60.73
2022-10-01T18:59:05.793Z,61.66
2022-10-01T19:02:09.872Z,61.88
2022-10-01T19:05:05.729Z,62.21
2022-10-01T19:08:01.194Z,61.82
2022-10-01T19:10:37.572Z,61.93
2022-10-01T19:13:17.952Z,63.05
2022-10-01T19:15:54.395Z,63.07
2022-10-01T19:18:39.714Z,62.51
2022-10-01T19:21:21.924Z,62.60
2022-10-01T19:24:10.354Z,63.21
2022-10-01T19:27:04.573Z,63.85
2022-10-01T19:29:55.102Z,63.68
2022-10-01T19:32:25.715Z,63.65
2022-10-01T19:35:00.595Z,63.98
2022-10-01T19:37:41.154Z,64.29
2022-10-01T19:40:30.911Z,63.73
2022-10-01T19:43:16.559Z,64.17
2022-10-01T19:46:08.956Z,64.91
2022-10-01T19:48:51.002Z,64.94
2022-10-01T19:51:23.417Z,64.92
2022-10-01T19:53:59.953Z,64.85
2022-10-01T19:56:32.353Z,65.10
2022-10-01T19:59:10.624Z,65.69
2022-10-01T20:01:41.858Z,65.17
2022-10-01T20:04:18.479Z,65.52
2022-10-01T20:06:46.866Z,66.12
2022-10-01T20:09:23.242Z,66.43
2022-10-01T20:12:04.585Z,65.62
2022-10-01T20:15:00.188Z,66.18
2022-10-01T20:17:51.087Z,65.71
2022-10-01T20:20:26.761Z,66.67
2022-10-01T20:23:36.801Z,66.26
2022-10-01T20:26:06.675Z,66.51
2022-10-01T20:29:06.016Z,66.77
2022-10-01T20:31:57.308Z,66.81
2022-10-01T20:35:01.999Z,66.98
2022-10-01T20:38:11.110Z,66.88
2022-10-01T20:40:44.163Z,66.73
2022-10-01T20:43:19.789Z,66.78
2022-10-01T20:45:50.005Z,66.79
2022-10-01T20:48:27.635Z,67.57
2022-10-01T20:51:01.652Z,67.89
2022-10-01T20:53:54.042Z,67.50
2022-10-01T20:56:40.335Z,67.79
2022-10-01T20:59:25.393Z,68.30
2022-10-01T21:02:13.613Z,67.39
2022-10-01T21:04:48.675Z,67.25
2022-10-01T21:07:50.021Z,67.94
2022-10-01T21:10:28.919Z,68.04
2022-10-01T21:13:14.315Z,68.47
2022-10-01T21:16:25.057Z,68.68
2022-10-01T21:19:17.460Z,68.26
2022-10-01T21:22:23.166Z,68.39
2022-10-01T21:24:49.650Z,67.65
2022-10-01T21:27:24.017Z,68.19
2022-10-01T21:30:14.210Z,67.84
2022-10-01T21:33:00.080Z,69.11
2022-10-01T21:35:43.888Z,69.23
2022-10-01T21:38:29.271Z,69.07
2022-10-01T21:41:38.590Z,69.31
2022-10-01T21:44:41.710Z,67.97
2022-10-01T21:47:22.427Z,68.04
2022-10-01T21:49:54.919Z,68.67
2022-10-01T21:52:21.404Z,68.06
2022-10-01T21:55:14.007Z,69.24
2022-10-01T21:57:51.479Z,69.02
2022-10-01T22:00:26.220Z,69.35
2022-10-01T22:02:53.197Z,69.29
2022-10-01T22:05:34.298Z,69.79
2022-10-01T22:08:16.003Z,69.34
2022-10-01T22:10:46.456Z,69.50
2022-10-01T22:13:22.429Z,69.80
2022-10-01T22:15:53.453Z,69.45
2022-10-01T22:18:45.846Z,70.65
2022-10-01T22:21:19.858Z,70.89
2022-10-01T22:23:52.666Z,71.31
2022-10-01T22:26:23.703Z,71.15
2022-10-01T22:28:53.920Z,71.43
2022-10-01T22:31:27.743Z,71.81
2022-10-01T22:34:10.865Z,72.21
2022-10-01T22:37:17.086Z,73.84
2022-10-01T22:39:55.604Z,73.21
2022-10-01T22:42:46.688Z,73.75
2022-10-01T22:45:15.782Z,72.96
2022-10-01T22:48:09.400Z,74.35
2022-10-01T22:50:49.447Z,74.30
2022-10-01T22:53:34.090Z,74.47
2022-10-01T22:56:00.654Z,74.58
2022-10-01T22:58:35.797Z,75.73
2022-10-01T23:01:40.012Z,75.91
2022-10-01T23:04:18.578Z,75.44
2022-10-01T23:07:01.438Z,76.11
2022-10-01T23:10:08.011Z,76.56
2022-10-01T23:12:40.935Z,76.30
2022-10-01T23:15:19.049Z,76.92
2022-10-01T23:18:04.699Z,77.80
2022-10-01T23:20:43.677Z,77.12
2022-10-01T23:23:22.400Z,78.19
2022-10-01T23:26:31.329Z,77.73
2022-10-01T23:29:06.843Z,78.55
2022-10-01T23:32:11.394Z,79.07
2022-10-01T23:34:58.146Z,79.11
2022-10-01T23:37:51.770Z,78.36
2022-10-01T23:40:21.144Z,77.81
2022-10-01T23:42:56.730Z,79.43
2022-10-01T23:45:34.946Z,79.69
2022-10-01T23:48:13.241Z,79.08
2022-10-01T23:50:52.102Z,78.98
2022-10-01T23:53:28.263Z,79.94
2022-10-01T23:56:26.341Z,80.25
2022-10-01T23:59:03.291Z,80.46
